Terminal Aerodrome Forecast
Issued by NWS North Platte, NE

Home | Current Version | Previous Version | Text Only | Print | Product List | Glossary On
Versions: 1 2 3 4 5 6 7 8 9 10 11 12 13 14 15 16 17 18 19
000
FTUS43 KLBF 220500
TAFLBF
TAF
KLBF 220525Z 2206/2306 16006KT P6SM SCT040 BKN060
     FM221500 13011KT P6SM OVC040
      TEMPO 2215/2217 12012G18KT -RA BKN025
     FM221700 13014G18KT 6SM RA BR OVC025
     FM230100 12014KT P6SM OVC015=

USA.gov is the U.S. government's official web portal to all federal, state and local government web resources and services.